METAR = Jan 19, 2018 - 10:53 PM EST / 2018.01.20 0353 UTC Wind: from the S (190 degrees) at 9 MPH (8 KT):0 Visibility: 10 mile(s):0 Sky conditions: overcast Temperature: 41.0 F (5.0 C) Dew Point: 21.0 F (-6.1 C) Relative Humidity: 44% Pressure (altimeter): 30.16 in. Hg (1021 hPa) ob: KMKL 200353Z AUTO 19008KT 10SM OVC040 05/M06 A3016 RMK AO2 SLP216 T00501061 cycle: 4

STATION........ KMKL
OBSERVED....... Wed Dec 31, 12:00 CST
NOW............ Fri Jan 19, 22:47 CST
AGE............ 421234:47 hr ago

Lookup Station KMKL Info

Select a code from the list below to get weather info or input non-listed METAR station ID:
Get weather info from station:           
Tennessee METAR List:

To locate the METAR Station(s) in your area, CLICK HERE